Time;durP1;ratioP1;P1;durP2;ratioP2;P2;SDS_P1;SDS_P2;PMS_P1;PMS_P2;Temp;Humidity;BMP_temperature;BMP_pressure;BME280_temperature;BME280_humidity;BME280_pressure;Samples;Min_cycle;Max_cycle;Signal;HPM_P1;HPM_P2
2021/08/04 00:02:07;;;;;;;7.05;6.00;;;;;;;15.03;71.17;100989.13;5125513;27;20399;-80
2021/08/04 00:04:33;;;;;;;9.02;7.35;;;;;;;14.94;71.28;100984.31;5125102;27;20043;-80
2021/08/04 00:07:00;;;;;;;9.10;6.57;;;;;;;14.75;71.19;100964.25;5133396;27;20054;-80
2021/08/04 00:09:26;;;;;;;9.18;6.75;;;;;;;14.96;71.42;100995.63;5128322;27;20055;-81
2021/08/04 00:11:53;;;;;;;8.27;6.60;;;;;;;14.92;71.18;100988.84;5131050;27;20547;-80
2021/08/04 00:14:19;;;;;;;9.02;6.90;;;;;;;14.88;71.34;100990.78;5132425;27;20520;-86
2021/08/04 00:16:46;;;;;;;10.38;6.55;;;;;;;14.81;71.58;100984.97;5133222;28;20043;-81
2021/08/04 00:19:13;;;;;;;9.48;7.03;;;;;;;14.83;71.92;100991.00;5137639;27;20122;-82
2021/08/04 00:21:40;;;;;;;9.07;7.25;;;;;;;14.84;71.73;100976.94;5140237;27;20475;-79
2021/08/04 00:24:07;;;;;;;9.63;6.80;;;;;;;14.72;71.97;100972.28;5132091;27;20092;-83
2021/08/04 00:26:37;;;;;;;10.60;7.35;;;;;;;14.66;72.29;100964.72;5134609;27;20126;-82
2021/08/04 00:29:05;;;;;;;8.63;7.25;;;;;;;14.64;72.84;100970.03;5138836;27;20051;-80
2021/08/04 00:31:31;;;;;;;9.93;7.00;;;;;;;14.68;73.11;100981.28;5140512;27;20043;-83
2021/08/04 00:33:57;;;;;;;11.00;7.88;;;;;;;14.57;72.94;100956.38;5136630;27;20501;-82
2021/08/04 00:36:46;;;;;;;10.73;7.20;;;;;;;14.72;73.21;100981.03;5138089;27;20086;-80
2021/08/04 00:39:36;;;;;;;9.02;7.15;;;;;;;14.66;72.72;100975.22;5137805;27;20112;-79
2021/08/04 00:42:27;;;;;;;10.55;7.38;;;;;;;14.51;72.83;100955.81;5132511;27;20058;-80
2021/08/04 00:45:18;;;;;;;9.95;7.68;;;;;;;14.68;72.65;100976.88;5124613;27;20038;-79
2021/08/04 00:48:08;;;;;;;11.27;7.60;;;;;;;14.75;72.57;100987.06;5129330;27;20122;-79
2021/08/04 00:51:01;;;;;;;9.02;6.88;;;;;;;14.55;72.39;100957.38;5128314;27;20042;-80
2021/08/04 00:53:52;;;;;;;9.80;6.35;;;;;;;14.48;72.58;100972.59;5124557;27;20096;-79
2021/08/04 00:56:43;;;;;;;10.75;6.90;;;;;;;14.51;72.53;100979.47;5129913;27;20084;-79
2021/08/04 00:59:36;;;;;;;9.07;6.65;;;;;;;14.56;72.74;100982.69;5136044;27;20498;-79
2021/08/04 01:03:04;;;;;;;11.50;7.22;;;;;;;14.60;72.42;100976.38;5134154;27;20046;-79
2021/08/04 01:05:37;;;;;;;8.60;6.35;;;;;;;14.62;72.84;100981.56;5102207;28;20090;-79
2021/08/04 01:08:30;;;;;;;8.15;6.78;;;;;;;14.63;72.73;100986.72;5133065;27;20398;-79
2021/08/04 01:11:27;;;;;;;8.35;6.65;;;;;;;14.61;72.82;100983.34;5132387;27;20460;-79
2021/08/04 01:14:22;;;;;;;10.32;7.00;;;;;;;14.59;73.22;100987.81;5105019;28;20058;-79
2021/08/04 01:17:12;;;;;;;9.35;6.97;;;;;;;14.52;73.07;100981.16;5110708;28;20402;-79
2021/08/04 01:20:12;;;;;;;10.15;7.10;;;;;;;14.55;73.33;100981.84;5101875;28;20522;-79
2021/08/04 01:23:27;;;;;;;10.68;7.07;;;;;;;14.41;73.78;100979.94;5134437;27;20062;-80
2021/08/04 01:26:18;;;;;;;10.32;7.20;;;;;;;14.38;74.03;100984.50;5140345;27;20100;-81
2021/08/04 01:29:09;;;;;;;12.55;6.95;;;;;;;14.45;73.71;100977.13;5139698;27;20049;-84
2021/08/04 01:32:01;;;;;;;10.90;6.72;;;;;;;14.57;73.35;100984.41;5136375;27;20050;-80
2021/08/04 01:34:53;;;;;;;8.48;6.65;;;;;;;14.65;73.10;100986.66;5122388;27;20543;-79
2021/08/04 01:38:08;;;;;;;9.00;6.53;;;;;;;14.62;73.16;100985.00;5121312;27;20046;-84
2021/08/04 01:41:01;;;;;;;8.45;6.65;;;;;;;14.43;73.07;100958.84;5127237;27;20038;-84
2021/08/04 01:43:41;;;;;;;9.68;7.53;;;;;;;14.64;73.23;100977.06;5161547;27;20062;-79
2021/08/04 01:46:12;;;;;;;8.35;6.97;;;;;;;14.68;72.95;100981.28;5160478;27;20023;-86
2021/08/04 01:48:40;;;;;;;9.05;7.43;;;;;;;14.60;73.12;100980.75;5148367;27;20035;-83
2021/08/04 01:51:08;;;;;;;11.43;7.20;;;;;;;14.57;73.37;100985.28;5159764;27;20031;-80
2021/08/04 01:53:36;;;;;;;8.88;6.82;;;;;;;14.58;73.32;100978.22;5155840;27;20044;-79
2021/08/04 01:56:03;;;;;;;9.43;6.75;;;;;;;14.64;73.41;100983.16;5161974;27;20049;-80
2021/08/04 01:58:29;;;;;;;7.57;6.78;;;;;;;14.55;73.54;100975.78;5157713;27;20047;-82
2021/08/04 02:00:57;;;;;;;10.43;7.47;;;;;;;14.57;73.45;100966.88;5157315;27;20058;-80
2021/08/04 02:03:23;;;;;;;10.77;7.82;;;;;;;14.60;73.45;100975.50;5158850;27;20092;-80
2021/08/04 02:05:51;;;;;;;10.00;7.72;;;;;;;14.47;73.90;100960.38;5156257;27;20375;-80
2021/08/04 02:08:33;;;;;;;10.10;7.63;;;;;;;14.66;73.22;100973.47;5134695;27;20046;-80
2021/08/04 02:11:13;;;;;;;9.15;6.78;;;;;;;14.75;73.13;100977.41;5130518;27;20060;-81
2021/08/04 02:13:51;;;;;;;9.80;7.43;;;;;;;14.52;72.99;100949.63;5121572;27;20140;-84
2021/08/04 02:16:33;;;;;;;10.15;7.45;;;;;;;14.53;73.75;100962.69;5127462;27;20043;-80
2021/08/04 02:19:15;;;;;;;10.52;7.43;;;;;;;14.57;74.11;100974.75;5115206;28;20044;-80
2021/08/04 02:21:47;;;;;;;9.18;7.38;;;;;;;14.57;74.35;100979.16;5117098;28;20059;-81
2021/08/04 02:24:35;;;;;;;12.40;8.13;;;;;;;14.55;74.25;100971.34;5149595;27;20034;-80
2021/08/04 02:27:03;;;;;;;11.20;7.63;;;;;;;14.38;74.46;100956.44;5133161;27;20122;-79
2021/08/04 02:29:35;;;;;;;11.75;7.72;;;;;;;14.51;74.24;100972.44;5138118;27;20093;-85
2021/08/04 02:32:03;;;;;;;11.57;7.88;;;;;;;14.55;74.04;100962.63;5133352;27;20051;-79
2021/08/04 02:34:29;;;;;;;11.90;7.95;;;;;;;14.53;73.76;100967.09;5126568;27;20051;-79
2021/08/04 02:36:55;;;;;;;11.13;8.13;;;;;;;14.55;73.90;100981.03;5133304;27;20521;-80
2021/08/04 02:39:22;;;;;;;10.05;7.90;;;;;;;14.53;73.83;100967.09;5134822;27;20076;-85
2021/08/04 02:41:49;;;;;;;9.20;7.13;;;;;;;14.58;73.76;100959.84;5114176;28;20051;-80
2021/08/04 02:44:15;;;;;;;9.88;7.22;;;;;;;14.62;73.77;100957.91;5132109;27;20051;-84
2021/08/04 02:46:47;;;;;;;9.93;7.65;;;;;;;14.43;74.16;100932.56;5132757;27;20050;-80
2021/08/04 02:49:16;;;;;;;10.02;7.30;;;;;;;14.49;74.59;100955.03;5135183;27;20495;-85
2021/08/04 02:51:43;;;;;;;9.38;7.85;;;;;;;14.50;74.93;100967.25;5132273;27;20047;-85
2021/08/04 02:54:13;;;;;;;10.52;7.30;;;;;;;14.36;74.54;100950.41;5134935;27;20497;-80
2021/08/04 02:56:39;;;;;;;10.05;7.03;;;;;;;14.48;74.51;100972.59;5136498;27;20050;-83
2021/08/04 02:59:06;;;;;;;10.20;8.10;;;;;;;14.21;74.88;100946.78;5133533;27;20051;-81
2021/08/04 03:01:33;;;;;;;8.32;6.97;;;;;;;14.18;74.98;100946.91;5126257;27;20039;-79
2021/08/04 03:04:00;;;;;;;9.40;7.80;;;;;;;14.31;75.16;100969.97;5132524;27;20039;-80
2021/08/04 03:06:27;;;;;;;9.60;7.55;;;;;;;14.18;75.22;100954.78;5135019;27;20050;-79
2021/08/04 03:08:55;;;;;;;10.00;7.28;;;;;;;14.25;75.39;100964.06;5134124;27;20051;-82
2021/08/04 03:11:22;;;;;;;12.27;8.07;;;;;;;14.23;75.28;100962.44;5135370;27;20051;-80
2021/08/04 03:13:49;;;;;;;10.57;7.70;;;;;;;14.12;74.96;100926.22;5133434;27;20051;-79
2021/08/04 03:16:15;;;;;;;9.18;7.80;;;;;;;14.29;75.03;100950.78;5135605;27;20051;-80
2021/08/04 03:18:41;;;;;;;8.85;7.05;;;;;;;14.18;75.18;100939.03;5134978;27;20509;-79
2021/08/04 03:21:07;;;;;;;8.75;7.07;;;;;;;14.20;75.15;100950.31;5135021;27;20047;-81
2021/08/04 03:23:33;;;;;;;10.82;7.65;;;;;;;14.06;75.39;100940.50;5134356;27;20043;-84
2021/08/04 03:26:00;;;;;;;9.02;7.13;;;;;;;14.04;75.28;100944.13;5135392;27;20162;-79
2021/08/04 03:28:26;;;;;;;11.93;7.47;;;;;;;14.08;76.01;100966.69;5127085;27;20054;-81
2021/08/04 03:30:52;;;;;;;8.68;7.57;;;;;;;13.97;76.18;100953.22;5125287;27;20410;-79
2021/08/04 03:33:19;;;;;;;11.02;7.80;;;;;;;13.99;75.80;100967.09;5129852;27;20133;-80
2021/08/04 03:35:45;;;;;;;9.75;7.10;;;;;;;13.96;75.92;100965.50;5135195;27;20088;-80
2021/08/04 03:38:11;;;;;;;8.63;7.15;;;;;;;14.03;75.88;100974.78;5133334;27;20050;-81
2021/08/04 03:40:37;;;;;;;8.35;7.30;;;;;;;13.79;75.60;100931.34;5133692;27;20051;-80
2021/08/04 03:43:03;;;;;;;11.98;8.20;;;;;;;13.97;75.29;100963.72;5136907;27;20388;-79
2021/08/04 03:45:29;;;;;;;11.23;7.50;;;;;;;13.90;75.46;100948.28;5137384;27;20077;-79
2021/08/04 03:47:56;;;;;;;10.82;7.50;;;;;;;13.98;75.71;100963.66;5137219;27;20045;-79
2021/08/04 03:50:23;;;;;;;10.50;7.55;;;;;;;14.04;75.52;100975.63;5137879;27;20039;-80
2021/08/04 03:52:50;;;;;;;9.05;7.78;;;;;;;13.80;75.91;100952.25;5134237;27;20047;-81
2021/08/04 03:55:16;;;;;;;9.45;7.63;;;;;;;13.82;76.30;100978.41;5138498;27;20043;-79
2021/08/04 03:57:42;;;;;;;8.60;6.60;;;;;;;13.90;76.18;100978.91;5132145;27;20053;-79
2021/08/04 04:00:10;;;;;;;9.70;7.43;;;;;;;13.82;76.66;100981.03;5128828;27;20047;-80
2021/08/04 04:02:38;;;;;;;9.73;7.97;;;;;;;13.57;76.87;100951.59;5133726;27;20065;-79
2021/08/04 04:05:07;;;;;;;9.68;7.85;;;;;;;13.58;77.20;100960.28;5148815;27;20043;-82
2021/08/04 04:07:34;;;;;;;9.52;6.78;;;;;;;13.58;76.97;100952.41;5146486;27;20050;-80
2021/08/04 04:10:03;;;;;;;9.85;7.45;;;;;;;13.72;77.46;100984.09;5145929;27;20043;-80
2021/08/04 04:12:29;;;;;;;11.52;7.90;;;;;;;13.53;77.01;100965.75;5142431;27;20048;-79
2021/08/04 04:14:56;;;;;;;10.27;7.78;;;;;;;13.60;77.22;100988.16;5123252;28;20104;-82
2021/08/04 04:17:23;;;;;;;10.13;7.65;;;;;;;13.42;77.56;100963.59;5141739;28;20031;-80
2021/08/04 04:19:49;;;;;;;9.43;7.35;;;;;;;13.42;77.41;100970.63;5155347;27;20039;-82
2021/08/04 04:22:16;;;;;;;8.60;7.55;;;;;;;13.58;77.65;100997.84;5143974;27;20061;-79
2021/08/04 04:24:43;;;;;;;9.77;7.60;;;;;;;13.60;77.34;100996.00;5143192;27;20107;-79
2021/08/04 04:27:09;;;;;;;9.48;7.47;;;;;;;13.47;77.64;100978.31;5136987;28;20039;-79
2021/08/04 04:29:37;;;;;;;9.63;7.57;;;;;;;13.43;78.01;100988.91;5120265;28;20527;-83
2021/08/04 04:32:04;;;;;;;9.35;7.53;;;;;;;13.47;78.23;100987.00;5126417;28;20043;-82
2021/08/04 04:34:30;;;;;;;8.48;6.88;;;;;;;13.48;77.59;100983.47;5131437;27;20054;-82
2021/08/04 04:36:57;;;;;;;10.85;8.45;;;;;;;13.48;78.17;100988.72;5133361;27;20039;-81
2021/08/04 04:39:24;;;;;;;10.80;7.95;;;;;;;13.45;78.17;100986.22;5113789;28;20051;-81
2021/08/04 04:41:49;;;;;;;11.00;7.63;;;;;;;13.51;78.30;100993.84;5128841;28;20069;-82
2021/08/04 04:44:15;;;;;;;10.93;8.35;;;;;;;13.50;78.37;100993.88;5132597;28;20130;-83
2021/08/04 04:46:41;;;;;;;10.60;8.05;;;;;;;13.44;78.52;100974.88;5134046;27;20555;-82
2021/08/04 04:49:07;;;;;;;9.30;8.27;;;;;;;13.48;78.15;100978.22;5147837;27;20122;-82
2021/08/04 04:51:37;;;;;;;10.68;8.10;;;;;;;13.38;78.55;100972.56;5145315;27;20059;-79
2021/08/04 04:54:03;;;;;;;10.73;8.48;;;;;;;13.40;78.19;100973.34;5152143;27;20096;-81
2021/08/04 04:56:30;;;;;;;9.43;7.88;;;;;;;13.51;78.08;101000.84;5129544;27;20059;-85
2021/08/04 04:58:56;;;;;;;8.90;8.00;;;;;;;13.45;78.01;100986.22;5128713;28;20063;-81
2021/08/04 05:01:22;;;;;;;11.27;8.90;;;;;;;13.47;78.02;101000.13;5126852;28;20043;-80
2021/08/04 05:03:49;;;;;;;9.13;8.15;;;;;;;13.49;78.04;100998.28;5128586;28;20482;-84
2021/08/04 05:06:15;;;;;;;11.13;8.52;;;;;;;13.52;78.05;101006.00;5134376;27;20047;-81
2021/08/04 05:08:41;;;;;;;11.30;8.63;;;;;;;13.47;77.81;101002.75;5120540;27;20062;-86
2021/08/04 05:11:06;;;;;;;9.68;7.80;;;;;;;13.53;77.89;101009.50;5138760;27;20047;-80
2021/08/04 05:13:36;;;;;;;9.90;8.13;;;;;;;13.47;77.86;101012.41;5142617;27;20080;-80
2021/08/04 05:16:03;;;;;;;10.93;8.10;;;;;;;13.51;78.13;101012.19;5138261;27;20069;-82
2021/08/04 05:18:29;;;;;;;11.05;8.35;;;;;;;13.41;77.88;100995.16;5133069;27;20073;-83
2021/08/04 05:20:55;;;;;;;11.73;8.43;;;;;;;13.61;77.56;101012.63;5138316;27;20100;-80
2021/08/04 05:23:21;;;;;;;15.73;8.38;;;;;;;13.72;77.05;101012.97;5137211;27;20039;-83
2021/08/04 05:25:50;;;;;;;12.05;8.18;;;;;;;13.73;77.00;101009.44;5137041;27;20043;-83
2021/08/04 05:28:17;;;;;;;10.35;7.90;;;;;;;13.79;76.48;101007.44;5135433;27;20116;-83
2021/08/04 05:30:44;;;;;;;10.23;8.10;;;;;;;13.90;76.56;101010.41;5132938;27;20043;-81
2021/08/04 05:33:11;;;;;;;10.40;8.75;;;;;;;13.75;76.59;101015.44;5126941;27;20054;-80
2021/08/04 05:35:38;;;;;;;13.00;8.88;;;;;;;13.74;77.00;101023.38;5135895;27;20054;-82
2021/08/04 05:38:04;;;;;;;11.45;9.07;;;;;;;13.79;76.77;101017.94;5136485;27;20066;-81
2021/08/04 05:40:31;;;;;;;16.50;8.40;;;;;;;13.89;76.38;101016.56;5136362;27;20046;-80
2021/08/04 05:43:03;;;;;;;13.77;9.18;;;;;;;13.96;75.94;101009.25;5130900;27;20035;-82
2021/08/04 05:45:30;;;;;;;13.38;8.57;;;;;;;13.96;76.19;101015.34;5138502;27;20043;-82
2021/08/04 05:47:59;;;;;;;12.77;9.40;;;;;;;13.93;75.91;101012.88;5137114;27;20039;-81
2021/08/04 05:50:25;;;;;;;11.57;9.70;;;;;;;14.01;75.67;101007.25;5137324;27;20061;-80
2021/08/04 05:52:51;;;;;;;12.00;9.60;;;;;;;14.13;75.46;101022.44;5134930;27;20051;-81
2021/08/04 05:55:18;;;;;;;15.00;9.50;;;;;;;14.20;75.16;101020.38;5136971;27;20092;-80
2021/08/04 05:57:45;;;;;;;11.27;10.05;;;;;;;14.14;75.16;101015.41;5133018;27;20045;-81
2021/08/04 06:00:11;;;;;;;12.18;9.95;;;;;;;14.14;75.10;101007.53;5132486;27;20134;-81
2021/08/04 06:02:37;;;;;;;11.32;9.50;;;;;;;14.10;75.43;101004.22;5128159;27;20131;-79
2021/08/04 06:05:07;;;;;;;14.10;9.38;;;;;;;14.08;75.36;101006.06;5129897;27;20042;-79
2021/08/04 06:07:33;;;;;;;11.70;8.98;;;;;;;14.16;75.30;101017.03;5135028;27;20046;-79
2021/08/04 06:09:59;;;;;;;16.88;10.63;;;;;;;14.27;75.28;101031.41;5137792;27;20048;-80
2021/08/04 06:12:27;;;;;;;11.30;8.57;;;;;;;14.31;75.03;101025.94;5155532;27;20154;-81
2021/08/04 06:14:53;;;;;;;12.50;9.90;;;;;;;14.28;74.61;100996.34;5155407;27;20051;-78
2021/08/04 06:17:19;;;;;;;13.38;10.55;;;;;;;14.61;74.24;101029.75;5134695;27;20135;-80
2021/08/04 06:19:45;;;;;;;12.98;10.25;;;;;;;14.69;74.14;101030.25;5144096;27;20447;-79
2021/08/04 06:22:12;;;;;;;14.05;10.75;;;;;;;14.72;73.73;101025.72;5136507;27;20051;-80
2021/08/04 06:24:38;;;;;;;16.58;11.75;;;;;;;14.83;73.34;101026.94;5137966;27;20454;-82
2021/08/04 06:27:04;;;;;;;12.23;10.25;;;;;;;14.51;73.36;100976.84;5120333;27;20051;-82
2021/08/04 06:29:30;;;;;;;14.45;11.50;;;;;;;14.68;73.60;101008.41;5126699;27;20516;-79
2021/08/04 06:31:56;;;;;;;17.10;11.90;;;;;;;14.74;73.76;101028.25;5139481;27;20042;-78
2021/08/04 06:34:22;;;;;;;14.60;12.13;;;;;;;14.59;73.43;100987.81;5142835;27;20439;-80
2021/08/04 06:36:49;;;;;;;17.15;12.18;;;;;;;15.03;72.74;101020.66;5144406;27;20095;-80
2021/08/04 06:39:16;;;;;;;15.80;12.45;;;;;;;15.04;72.40;101025.84;5150956;27;20043;-79
2021/08/04 06:41:44;;;;;;;15.60;11.85;;;;;;;15.08;72.74;101020.44;5150989;27;20043;-80
2021/08/04 06:44:11;;;;;;;17.92;11.55;;;;;;;15.19;72.42;101015.44;5156447;27;20031;-80
2021/08/04 06:46:39;;;;;;;20.48;11.80;;;;;;;15.23;72.39;101022.25;5160029;27;20023;-85
2021/08/04 06:49:08;;;;;;;16.25;11.43;;;;;;;15.28;72.17;101022.00;5143983;27;20071;-80
2021/08/04 06:51:35;;;;;;;15.70;11.00;;;;;;;15.15;72.62;101032.34;5120040;28;20051;-81
2021/08/04 06:54:02;;;;;;;12.57;10.52;;;;;;;15.11;72.71;101004.47;5124175;27;20461;-81
2021/08/04 06:56:28;;;;;;;15.38;10.85;;;;;;;15.16;72.35;101012.97;5137392;27;20051;-82
2021/08/04 06:58:54;;;;;;;15.15;11.55;;;;;;;15.39;72.02;101029.34;5134645;27;20082;-81
2021/08/04 07:01:20;;;;;;;14.68;11.15;;;;;;;15.54;71.50;101028.53;5133307;27;20035;-86
2021/08/04 07:03:47;;;;;;;14.77;10.52;;;;;;;15.78;70.85;101038.63;5134521;27;20051;-80
2021/08/04 07:06:15;;;;;;;12.55;10.23;;;;;;;15.78;70.55;101021.06;5136476;27;20066;-80
2021/08/04 07:08:41;;;;;;;12.30;9.63;;;;;;;15.95;69.71;101014.91;5135215;27;20046;-80
2021/08/04 07:11:08;;;;;;;13.48;9.52;;;;;;;16.10;69.60;101017.59;5136175;27;20047;-82
2021/08/04 07:13:34;;;;;;;16.15;10.65;;;;;;;16.15;69.30;101021.69;5154874;27;20050;-81
2021/08/04 07:16:02;;;;;;;12.70;9.52;;;;;;;16.16;69.42;101033.91;5154625;27;20066;-80
2021/08/04 07:18:30;;;;;;;12.07;8.60;;;;;;;16.31;69.67;101037.47;5134689;27;20054;-81
2021/08/04 07:20:59;;;;;;;11.07;8.50;;;;;;;16.39;69.22;101039.66;5138881;27;20042;-80
2021/08/04 07:23:27;;;;;;;10.00;8.75;;;;;;;16.30;69.26;101027.00;5136341;27;20507;-81
2021/08/04 07:25:53;;;;;;;8.63;7.60;;;;;;;16.54;69.06;101027.38;5135720;27;20068;-81
2021/08/04 07:28:19;;;;;;;9.48;8.27;;;;;;;16.64;68.05;101006.63;5125473;27;20039;-81
2021/08/04 07:30:47;;;;;;;9.18;7.55;;;;;;;16.90;67.94;101035.84;5137569;27;20054;-81
2021/08/04 07:33:16;;;;;;;11.38;8.48;;;;;;;17.05;67.45;101039.41;5134785;27;20048;-79
2021/08/04 07:35:43;;;;;;;11.07;7.35;;;;;;;17.12;66.93;101028.41;5132192;27;20039;-78
2021/08/04 07:38:09;;;;;;;10.00;8.23;;;;;;;17.17;66.23;101030.72;5134235;27;20050;-80
2021/08/04 07:40:36;;;;;;;10.73;7.55;;;;;;;17.22;65.88;101036.59;5133389;27;20070;-80
2021/08/04 07:43:02;;;;;;;7.68;6.82;;;;;;;17.26;65.26;101032.00;5135067;27;20046;-80
2021/08/04 07:45:29;;;;;;;11.05;7.32;;;;;;;17.23;65.01;101034.81;5134237;27;20043;-80
2021/08/04 07:47:55;;;;;;;9.65;8.25;;;;;;;17.23;65.05;101043.56;5137072;27;20072;-80
2021/08/04 07:50:22;;;;;;;9.88;8.25;;;;;;;17.34;65.10;101028.88;5136484;27;20051;-81
2021/08/04 07:52:49;;;;;;;10.40;8.52;;;;;;;17.19;65.56;101020.13;5136912;27;20055;-80
2021/08/04 07:55:16;;;;;;;11.07;7.60;;;;;;;17.31;65.38;101013.22;5132785;27;20137;-80
2021/08/04 07:57:45;;;;;;;11.85;8.35;;;;;;;17.61;65.16;101034.22;5133237;27;20051;-81
2021/08/04 08:00:15;;;;;;;9.43;8.25;;;;;;;17.63;65.32;101040.25;5131729;27;20047;-81
2021/08/04 08:02:41;;;;;;;10.07;7.85;;;;;;;17.80;64.81;101033.06;5129059;27;20047;-80
2021/08/04 08:05:08;;;;;;;8.60;7.55;;;;;;;18.03;63.87;101029.84;5134860;27;20043;-82
2021/08/04 08:07:34;;;;;;;9.00;8.10;;;;;;;18.13;63.09;101032.72;5135517;27;20044;-81
2021/08/04 08:10:03;;;;;;;12.25;8.60;;;;;;;18.19;62.98;101029.69;5135161;27;20491;-81
2021/08/04 08:12:30;;;;;;;9.20;7.43;;;;;;;18.07;62.78;100996.16;5135273;27;20044;-81
2021/08/04 08:14:56;;;;;;;10.52;8.38;;;;;;;18.20;62.74;101020.81;5133529;27;20047;-82
2021/08/04 08:17:22;;;;;;;10.07;7.60;;;;;;;18.43;63.53;101025.53;5132710;27;20514;-76
2021/08/04 08:19:49;;;;;;;10.60;7.40;;;;;;;18.31;62.20;100984.91;5136164;27;20051;-80
2021/08/04 08:22:15;;;;;;;11.15;8.25;;;;;;;18.42;61.75;101011.50;5145425;27;20078;-80
2021/08/04 08:24:41;;;;;;;8.88;7.07;;;;;;;18.51;61.95;101024.06;5142132;28;20046;-81
2021/08/04 08:27:08;;;;;;;9.57;8.23;;;;;;;18.69;61.33;101044.97;5137779;28;20059;-82
2021/08/04 08:29:34;;;;;;;10.45;8.23;;;;;;;18.55;61.14;101025.59;5123054;28;20537;-82
2021/08/04 08:32:02;;;;;;;13.25;8.45;;;;;;;18.82;61.83;101029.09;5131759;28;20040;-79
2021/08/04 08:34:28;;;;;;;10.00;8.00;;;;;;;18.91;59.88;100998.53;5134253;27;20043;-82
2021/08/04 08:36:54;;;;;;;9.60;8.20;;;;;;;19.08;59.36;101024.72;5134106;27;20082;-81
2021/08/04 08:39:20;;;;;;;9.75;8.52;;;;;;;18.90;59.72;101024.16;5135115;27;20403;-80
2021/08/04 08:41:49;;;;;;;9.15;7.78;;;;;;;18.92;60.19;101027.56;5139070;27;20123;-80
2021/08/04 08:44:15;;;;;;;11.75;7.72;;;;;;;19.00;59.06;101035.81;5139271;27;20043;-81
2021/08/04 08:46:41;;;;;;;10.02;7.88;;;;;;;18.87;59.56;101041.06;5139196;27;20486;-81
2021/08/04 08:49:07;;;;;;;9.40;7.43;;;;;;;18.65;59.09;101001.16;5138859;27;20069;-81
2021/08/04 08:51:34;;;;;;;8.70;7.80;;;;;;;19.02;58.56;101036.56;5139939;27;20130;-81
2021/08/04 08:54:00;;;;;;;7.80;7.00;;;;;;;19.08;58.79;101037.94;5138150;27;20123;-81
2021/08/04 08:56:27;;;;;;;9.40;6.30;;;;;;;19.24;57.79;101013.91;5138547;27;20130;-79
2021/08/04 08:58:54;;;;;;;9.55;7.07;;;;;;;19.61;57.15;101031.66;5139038;27;20051;-79
2021/08/04 09:01:36;;;;;;;8.40;6.85;;;;;;;19.72;56.70;101029.06;5129095;27;20074;-80
2021/08/04 09:04:05;;;;;;;7.13;6.43;;;;;;;19.58;55.81;101030.06;5139744;27;20403;-80
2021/08/04 09:06:48;;;;;;;8.60;6.50;;;;;;;19.48;55.93;101027.22;5153249;27;20077;-79
2021/08/04 09:09:23;;;;;;;8.30;6.90;;;;;;;19.47;56.19;101029.97;5156343;27;20031;-81
2021/08/04 09:11:53;;;;;;;7.95;6.53;;;;;;;19.55;56.10;101026.78;5152517;27;20076;-80
2021/08/04 09:14:30;;;;;;;7.90;7.10;;;;;;;19.94;54.86;101028.38;5153822;27;20044;-80
2021/08/04 09:17:12;;;;;;;7.22;6.15;;;;;;;20.17;53.44;101025.03;5153533;27;20106;-79
2021/08/04 09:19:43;;;;;;;8.93;6.40;;;;;;;20.08;54.27;101029.19;5142963;27;20054;-80
2021/08/04 09:22:24;;;;;;;8.25;6.80;;;;;;;20.03;53.55;101002.19;5138269;27;20047;-81
2021/08/04 09:24:53;;;;;;;9.95;6.60;;;;;;;20.27;53.57;101026.88;5138759;27;20043;-81
2021/08/04 09:27:20;;;;;;;8.30;7.40;;;;;;;20.39;53.25;101025.13;5137220;27;20035;-82
2021/08/04 09:29:59;;;;;;;8.18;6.75;;;;;;;20.50;52.22;101034.09;5138547;27;20058;-81
2021/08/04 09:32:26;;;;;;;6.82;6.13;;;;;;;20.64;51.88;101032.09;5139079;27;20054;-80
2021/08/04 09:34:54;;;;;;;8.50;7.30;;;;;;;20.67;51.82;101004.47;5138685;27;20039;-80
2021/08/04 09:37:21;;;;;;;8.93;7.50;;;;;;;20.18;52.83;101008.16;5138288;27;20047;-84
2021/08/04 09:39:54;;;;;;;8.05;6.00;;;;;;;20.46;52.75;101026.34;5158863;27;20076;-81
2021/08/04 09:42:21;;;;;;;7.85;6.40;;;;;;;20.38;53.44;101017.28;5162307;27;20035;-80
2021/08/04 09:44:56;;;;;;;8.45;6.32;;;;;;;20.74;52.58;101020.81;5158986;27;20046;-82
2021/08/04 09:47:22;;;;;;;9.77;6.97;;;;;;;20.78;52.09;101009.84;5138979;27;20080;-80
2021/08/04 09:49:57;;;;;;;8.63;6.68;;;;;;;21.23;51.45;101027.63;5138376;27;20047;-80
2021/08/04 09:52:24;;;;;;;7.88;7.07;;;;;;;21.13;50.95;101023.16;5137140;27;20488;-79
2021/08/04 09:54:50;;;;;;;7.28;6.22;;;;;;;21.03;50.32;100985.88;5128661;27;20048;-81
2021/08/04 09:57:16;;;;;;;8.15;6.93;;;;;;;21.26;50.18;101008.81;5116386;28;20047;-82
2021/08/04 10:00:07;;;;;;;8.05;6.50;;;;;;;21.74;49.28;101015.69;5117660;28;20065;-83
2021/08/04 10:02:33;;;;;;;8.02;6.88;;;;;;;21.90;48.18;100999.34;5132736;27;20043;-80
2021/08/04 10:05:22;;;;;;;8.07;6.72;;;;;;;22.14;47.69;101016.06;5138001;27;20096;-79
2021/08/04 10:08:09;;;;;;;7.28;6.35;;;;;;;22.46;47.25;101015.22;5138406;27;20100;-82
2021/08/04 10:10:49;;;;;;;7.32;5.45;;;;;;;22.81;45.97;101014.94;5137969;27;20499;-82
2021/08/04 10:13:19;;;;;;;10.93;6.43;;;;;;;22.51;46.25;101000.56;5136785;27;20043;-81
2021/08/04 10:15:53;;;;;;;6.60;5.68;;;;;;;22.42;46.06;101011.16;5138461;27;20411;-81
2021/08/04 10:18:23;;;;;;;;;;;;;;;22.45;45.46;101002.88;5136927;27;20046;-82
2021/08/04 10:21:00;;;;;;;6.93;5.78;;;;;;;22.53;45.60;101001.31;5138042;27;19919;-83
2021/08/04 10:23:29;;;;;;;5.90;5.30;;;;;;;22.89;45.47;101000.09;5137362;27;20082;-80
2021/08/04 10:25:57;;;;;;;7.90;5.88;;;;;;;22.82;45.34;100989.97;5137746;27;20066;-84
2021/08/04 10:28:25;;;;;;;9.52;5.65;;;;;;;23.32;44.09;100991.09;5137800;27;20506;-79
2021/08/04 10:30:51;;;;;;;7.00;5.45;;;;;;;23.28;43.57;100963.03;5138126;27;20473;-82
2021/08/04 10:33:17;;;;;;;8.02;5.53;;;;;;;23.43;42.95;100967.00;5139693;27;20046;-83
2021/08/04 10:35:48;;;;;;;6.68;5.13;;;;;;;23.02;43.16;100987.41;5142691;27;20043;-82
2021/08/04 10:38:19;;;;;;;6.75;5.05;;;;;;;23.00;43.50;100992.03;5144131;27;20421;-82
2021/08/04 10:41:06;;;;;;;8.00;4.70;;;;;;;23.14;43.51;100990.84;5155126;27;20157;-81
2021/08/04 10:43:41;;;;;;;7.40;4.55;;;;;;;23.56;42.89;100973.91;5146435;27;20051;-80
2021/08/04 10:46:29;;;;;;;6.97;4.75;;;;;;;23.73;42.25;100983.03;5136285;27;20073;-80
2021/08/04 10:49:04;;;;;;;6.63;4.68;;;;;;;23.55;42.40;100985.56;5123727;27;20058;-80
2021/08/04 10:51:38;;;;;;;5.28;3.58;;;;;;;23.32;42.66;100975.94;5118624;27;20055;-79
2021/08/04 10:54:13;;;;;;;6.63;4.80;;;;;;;23.64;42.69;100984.72;5137877;27;20042;-83
2021/08/04 10:56:42;;;;;;;6.28;5.05;;;;;;;23.88;41.66;100992.34;5135612;27;20043;-79
2021/08/04 10:59:08;;;;;;;8.55;5.53;;;;;;;23.95;41.39;100985.50;5136951;27;20043;-78
2021/08/04 11:02:10;;;;;;;6.85;5.50;;;;;;;23.46;42.07;100982.72;5139209;27;20047;-85
2021/08/04 11:04:52;;;;;;;7.15;5.63;;;;;;;23.60;41.99;100983.31;5137877;27;20095;-84
2021/08/04 11:07:22;;;;;;;6.53;5.13;;;;;;;23.85;41.72;100981.09;5137536;27;20122;-78
2021/08/04 11:09:51;;;;;;;6.68;5.63;;;;;;;23.50;41.94;100981.47;5137587;27;20050;-77
2021/08/04 11:12:43;;;;;;;7.97;5.18;;;;;;;23.69;41.91;100985.13;5128149;27;20060;-78
2021/08/04 11:15:29;;;;;;;8.57;5.18;;;;;;;23.55;43.71;100983.72;5116211;28;20048;-77
2021/08/04 11:18:06;;;;;;;6.55;5.85;;;;;;;22.82;44.88;100986.47;5121742;27;20043;-78
2021/08/04 11:20:59;;;;;;;9.35;5.60;;;;;;;22.47;45.52;100995.63;5137191;27;20073;-77
2021/08/04 11:23:48;;;;;;;8.88;5.70;;;;;;;22.17;46.27;100989.22;5122218;27;20529;-78
2021/08/04 11:26:22;;;;;;;7.07;5.68;;;;;;;22.32;45.25;100971.97;5134872;27;20066;-79
2021/08/04 11:28:49;;;;;;;6.50;4.90;;;;;;;22.69;44.98;100979.56;5134693;27;20100;-77
2021/08/04 11:31:16;;;;;;;6.03;4.90;;;;;;;22.81;44.34;100990.97;5136091;27;20042;-78
2021/08/04 11:33:43;;;;;;;6.75;4.78;;;;;;;23.26;43.75;100971.16;5134649;27;20093;-78
2021/08/04 11:36:16;;;;;;;8.23;4.80;;;;;;;23.35;43.39;100969.50;5134118;27;20047;-79
2021/08/04 11:39:09;;;;;;;9.43;5.20;;;;;;;23.16;43.71;100975.56;5152863;27;20033;-78
2021/08/04 11:42:05;;;;;;;5.40;4.72;;;;;;;22.52;44.92;100977.47;5152935;27;20047;-77